Time;durP1;ratioP1;P1;durP2;ratioP2;P2;SDS_P1;SDS_P2;PMS_P1;PMS_P2;Temp;Humidity;BMP_temperature;BMP_pressure;BME280_temperature;BME280_humidity;BME280_pressure;Samples;Min_cycle;Max_cycle;Signal;HPM_P1;HPM_P2
2024/02/28 00:01:03;;;;;;;5.57;3.60;;;7.40;99.90;;;;;;5114874;28;20443;-80
2024/02/28 00:03:31;;;;;;;9.87;3.80;;;7.40;99.90;;;;;;5114910;28;20442;-80
2024/02/28 00:05:58;;;;;;;8.27;4.00;;;7.40;99.90;;;;;;5125145;28;20449;-80
2024/02/28 00:08:25;;;;;;;7.67;3.97;;;7.40;99.90;;;;;;5125356;28;20789;-80
2024/02/28 00:10:52;;;;;;;11.23;4.17;;;7.40;99.90;;;;;;5114727;28;20491;-80
2024/02/28 00:13:20;;;;;;;11.17;4.60;;;7.30;99.90;;;;;;5123873;28;20443;-80
2024/02/28 00:15:46;;;;;;;9.30;3.67;;;7.30;99.90;;;;;;5124542;28;20443;-80
2024/02/28 00:18:13;;;;;;;7.83;3.93;;;7.30;99.90;;;;;;5130937;28;20443;-80
2024/02/28 00:20:41;;;;;;;7.47;3.80;;;7.20;99.90;;;;;;5125796;28;20443;-80
2024/02/28 00:23:08;;;;;;;11.30;4.67;;;7.20;99.90;;;;;;5120890;27;20447;-80
2024/02/28 00:25:35;;;;;;;7.20;3.77;;;7.10;99.90;;;;;;5116666;28;20951;-80
2024/02/28 00:28:01;;;;;;;9.50;4.60;;;7.20;99.90;;;;;;5118045;28;20450;-80
2024/02/28 00:30:28;;;;;;;5.87;3.60;;;7.10;99.90;;;;;;5116071;28;20822;-80
2024/02/28 00:32:55;;;;;;;8.13;3.63;;;7.10;99.90;;;;;;5116589;28;20531;-80
2024/02/28 00:35:21;;;;;;;3.90;3.07;;;7.10;99.90;;;;;;5116674;28;20447;-80
2024/02/28 00:37:49;;;;;;;5.40;3.13;;;7.10;99.90;;;;;;5115853;28;20940;-80
2024/02/28 00:40:16;;;;;;;11.20;5.03;;;7.00;99.90;;;;;;5115282;28;20463;-80
2024/02/28 00:42:43;;;;;;;9.80;3.63;;;7.00;99.90;;;;;;5115126;28;20465;-80
2024/02/28 00:45:10;;;;;;;4.20;3.80;;;6.90;99.90;;;;;;5114516;28;20522;-80
2024/02/28 00:47:37;;;;;;;6.07;4.03;;;6.90;99.90;;;;;;5114731;28;20488;-80
2024/02/28 00:50:05;;;;;;;7.30;4.63;;;6.80;99.90;;;;;;5114742;28;20474;-80
2024/02/28 00:52:32;;;;;;;9.17;4.30;;;6.80;99.90;;;;;;5115873;28;20481;-80
2024/02/28 00:55:00;;;;;;;7.93;4.63;;;6.70;99.90;;;;;;5116917;28;20443;-80
2024/02/28 00:57:27;;;;;;;8.63;4.90;;;6.70;99.90;;;;;;5116589;28;20439;-80
2024/02/28 00:59:54;;;;;;;11.60;4.00;;;6.70;99.90;;;;;;5116395;28;20455;-80
2024/02/28 01:02:21;;;;;;;8.17;4.00;;;6.70;99.90;;;;;;5116467;28;20492;-80
2024/02/28 01:04:48;;;;;;;7.03;4.17;;;6.80;99.90;;;;;;5115838;28;20446;-80
2024/02/28 01:07:15;;;;;;;6.73;3.17;;;6.80;99.90;;;;;;5116627;28;20454;-80
2024/02/28 01:09:41;;;;;;;9.03;3.27;;;6.90;99.90;;;;;;5115857;28;20463;-80
2024/02/28 01:12:10;;;;;;;6.20;3.47;;;6.90;99.90;;;;;;5116050;28;20463;-80
2024/02/28 01:14:36;;;;;;;6.10;4.03;;;6.90;99.90;;;;;;5115970;28;20443;-80
2024/02/28 01:17:03;;;;;;;7.87;3.70;;;7.00;99.90;;;;;;5116182;28;20461;-80
2024/02/28 01:19:30;;;;;;;9.57;3.40;;;7.00;99.90;;;;;;5116075;28;20467;-80
2024/02/28 01:21:57;;;;;;;7.47;3.93;;;7.00;99.90;;;;;;5116285;28;20438;-80
2024/02/28 01:24:23;;;;;;;9.90;4.00;;;7.00;99.90;;;;;;5115907;28;20954;-80
2024/02/28 01:26:50;;;;;;;4.83;3.20;;;6.90;99.90;;;;;;5115749;28;20450;-80
2024/02/28 01:29:18;;;;;;;6.40;4.43;;;7.00;99.90;;;;;;5115952;28;20512;-80
2024/02/28 01:31:45;;;;;;;12.13;5.43;;;7.00;99.90;;;;;;5115866;28;20481;-80
2024/02/28 01:34:12;;;;;;;6.23;3.40;;;7.00;99.90;;;;;;5115901;28;20439;-80
2024/02/28 01:36:38;;;;;;;4.87;3.53;;;7.00;99.90;;;;;;5121078;28;20442;-81
2024/02/28 01:39:05;;;;;;;7.23;4.97;;;7.00;99.90;;;;;;5115381;28;20455;-80
2024/02/28 01:41:32;;;;;;;5.83;3.83;;;7.00;99.90;;;;;;5115428;28;20471;-80
2024/02/28 01:43:59;;;;;;;10.70;4.57;;;7.00;99.90;;;;;;5114864;28;20449;-80
2024/02/28 01:46:28;;;;;;;8.30;3.10;;;7.00;99.90;;;;;;5115492;28;20451;-80
2024/02/28 01:48:56;;;;;;;12.53;3.40;;;7.00;99.90;;;;;;5115535;28;20462;-80
2024/02/28 01:51:25;;;;;;;9.90;4.30;;;7.00;99.90;;;;;;5115146;28;20479;-80
2024/02/28 01:53:53;;;;;;;7.93;4.10;;;7.10;99.90;;;;;;5114763;28;20952;-80
2024/02/28 01:56:23;;;;;;;8.77;4.90;;;7.00;99.90;;;;;;5116215;28;20446;-80
2024/02/28 01:58:51;;;;;;;10.23;4.40;;;7.00;99.90;;;;;;5119072;28;20462;-80
2024/02/28 02:01:18;;;;;;;10.80;3.57;;;7.00;99.90;;;;;;5118794;28;20793;-80
2024/02/28 02:03:46;;;;;;;7.40;4.00;;;7.10;99.90;;;;;;5118918;27;20450;-80
2024/02/28 02:06:13;;;;;;;7.80;3.17;;;7.10;99.90;;;;;;5119281;27;20427;-80
2024/02/28 02:08:41;;;;;;;14.23;5.03;;;7.10;99.90;;;;;;5119055;28;20466;-80
2024/02/28 02:11:08;;;;;;;8.40;3.17;;;7.10;99.90;;;;;;5118064;28;20509;-80
2024/02/28 02:13:35;;;;;;;21.53;4.67;;;7.10;99.90;;;;;;5118852;28;20450;-80
2024/02/28 02:16:02;;;;;;;17.93;5.03;;;7.00;99.90;;;;;;5118441;28;20496;-80
2024/02/28 02:18:29;;;;;;;7.27;3.80;;;7.00;99.90;;;;;;5118521;28;20481;-80
2024/02/28 02:21:03;;;;;;;5.87;3.00;;;7.00;99.90;;;;;;5118435;28;20454;-80
2024/02/28 02:23:31;;;;;;;8.50;2.57;;;7.00;99.90;;;;;;5123137;28;20422;-80
2024/02/28 02:25:58;;;;;;;6.33;3.53;;;7.00;99.90;;;;;;5126896;28;20442;-80
2024/02/28 02:28:25;;;;;;;8.80;3.93;;;7.00;99.90;;;;;;5126039;28;20446;-80
2024/02/28 02:30:51;;;;;;;9.17;4.37;;;7.00;99.90;;;;;;5119871;28;20435;-80
2024/02/28 02:33:18;;;;;;;8.37;4.57;;;7.00;99.90;;;;;;5118906;28;20482;-80
2024/02/28 02:35:45;;;;;;;10.97;3.90;;;7.00;99.90;;;;;;5119567;28;20797;-80
2024/02/28 02:38:12;;;;;;;6.10;3.27;;;7.00;99.90;;;;;;5118696;28;20600;-80
2024/02/28 02:40:40;;;;;;;7.40;3.67;;;7.00;99.90;;;;;;5118485;28;20447;-80
2024/02/28 02:43:06;;;;;;;5.80;3.10;;;7.00;99.90;;;;;;5118440;28;20442;-80
2024/02/28 02:45:33;;;;;;;9.50;2.90;;;7.00;99.90;;;;;;5118295;28;20451;-80
2024/02/28 02:48:00;;;;;;;10.40;4.03;;;7.00;99.90;;;;;;5118044;28;20781;-81
2024/02/28 02:50:27;;;;;;;12.50;3.43;;;7.00;99.90;;;;;;5118091;28;20459;-80
2024/02/28 02:52:53;;;;;;;6.50;2.63;;;7.00;99.90;;;;;;5118329;28;20479;-80
2024/02/28 02:55:20;;;;;;;5.53;2.33;;;7.00;99.90;;;;;;5118261;27;20530;-80
2024/02/28 02:57:48;;;;;;;6.17;2.93;;;6.90;99.90;;;;;;5117864;28;20444;-80
2024/02/28 03:00:15;;;;;;;8.87;3.57;;;6.90;99.90;;;;;;5117655;28;20798;-80
2024/02/28 03:02:42;;;;;;;7.20;3.13;;;6.90;99.90;;;;;;5118173;28;20432;-80
2024/02/28 03:05:09;;;;;;;8.90;4.87;;;6.90;99.90;;;;;;5118178;28;20447;-80
2024/02/28 03:07:36;;;;;;;7.97;3.80;;;6.90;99.90;;;;;;5117475;28;20496;-80
2024/02/28 03:10:03;;;;;;;8.60;4.13;;;6.90;99.90;;;;;;5117519;27;20487;-80
2024/02/28 03:12:29;;;;;;;11.90;4.73;;;6.90;99.90;;;;;;5117589;28;20474;-80
2024/02/28 03:14:58;;;;;;;5.33;3.03;;;6.90;99.90;;;;;;5117095;28;20966;-80
2024/02/28 03:17:25;;;;;;;7.23;3.20;;;7.00;99.90;;;;;;5117265;27;20439;-80
2024/02/28 03:19:51;;;;;;;22.27;5.97;;;6.90;99.90;;;;;;5117200;28;20459;-80
2024/02/28 03:22:18;;;;;;;9.53;4.43;;;6.90;99.90;;;;;;5116989;28;20443;-80
2024/02/28 03:24:45;;;;;;;8.33;4.43;;;6.90;99.90;;;;;;5117452;28;20446;-81
2024/02/28 03:27:11;;;;;;;7.27;3.77;;;6.90;99.90;;;;;;5117014;28;20939;-80
2024/02/28 03:29:38;;;;;;;6.83;4.30;;;6.90;99.90;;;;;;5116825;28;20467;-80
2024/02/28 03:32:07;;;;;;;6.07;3.50;;;6.90;99.90;;;;;;5116821;28;20479;-80
2024/02/28 03:34:34;;;;;;;6.10;3.37;;;6.90;99.90;;;;;;5116746;28;20428;-80
2024/02/28 03:37:00;;;;;;;5.80;2.70;;;6.90;99.90;;;;;;5117205;28;20474;-80
2024/02/28 03:39:27;;;;;;;8.33;3.33;;;6.90;99.90;;;;;;5116668;28;20490;-80
2024/02/28 03:41:54;;;;;;;8.33;3.50;;;6.90;99.90;;;;;;5116645;28;20511;-80
2024/02/28 03:44:21;;;;;;;8.40;2.83;;;6.90;99.90;;;;;;5116442;28;20940;-80
2024/02/28 03:46:48;;;;;;;11.47;4.80;;;6.90;99.90;;;;;;5116562;28;20525;-80
2024/02/28 03:49:16;;;;;;;9.90;3.93;;;6.90;99.90;;;;;;5120558;28;20463;-80
2024/02/28 03:51:42;;;;;;;4.57;2.80;;;6.90;99.90;;;;;;5117555;28;20448;-80
2024/02/28 03:54:09;;;;;;;6.53;3.70;;;6.80;99.90;;;;;;5115695;28;20443;-80
2024/02/28 03:56:36;;;;;;;9.83;4.83;;;6.80;99.90;;;;;;5115448;28;20454;-80
2024/02/28 03:59:04;;;;;;;9.17;4.00;;;6.80;99.90;;;;;;5115042;27;21044;-80
2024/02/28 04:01:30;;;;;;;10.33;3.43;;;6.80;99.90;;;;;;5115419;28;20788;-80
2024/02/28 04:03:57;;;;;;;6.40;3.63;;;6.80;99.90;;;;;;5115656;28;20430;-80
2024/02/28 04:06:25;;;;;;;9.97;3.67;;;6.80;99.90;;;;;;5115626;28;20534;-80
2024/02/28 04:08:52;;;;;;;9.73;4.90;;;6.90;99.90;;;;;;5115374;28;20467;-80
2024/02/28 04:11:19;;;;;;;7.10;3.67;;;6.80;99.90;;;;;;5114809;28;20467;-80
2024/02/28 04:13:46;;;;;;;7.30;3.73;;;6.80;99.90;;;;;;5115298;28;20483;-80
2024/02/28 04:16:13;;;;;;;3.83;2.30;;;6.80;99.90;;;;;;5115480;28;20446;-80
2024/02/28 04:18:41;;;;;;;7.23;3.57;;;6.80;99.90;;;;;;5115950;28;20466;-80
2024/02/28 04:21:07;;;;;;;8.70;3.37;;;6.80;99.90;;;;;;5115394;28;20439;-80
2024/02/28 04:23:35;;;;;;;8.03;3.77;;;6.80;99.90;;;;;;5115400;28;20518;-80
2024/02/28 04:26:03;;;;;;;9.70;5.10;;;6.80;99.90;;;;;;5115032;28;20454;-80
2024/02/28 04:28:30;;;;;;;3.60;2.87;;;6.70;99.90;;;;;;5115102;28;20471;-80
2024/02/28 04:30:57;;;;;;;6.60;2.80;;;6.70;99.90;;;;;;5115245;28;20780;-80
2024/02/28 04:33:23;;;;;;;4.00;2.57;;;6.70;99.90;;;;;;5115054;28;20485;-80
2024/02/28 04:35:50;;;;;;;8.00;3.60;;;6.70;99.90;;;;;;5115227;28;20466;-80
2024/02/28 04:38:17;;;;;;;13.77;4.80;;;6.70;99.90;;;;;;5114900;28;20439;-80
2024/02/28 04:40:45;;;;;;;5.80;3.00;;;6.70;99.90;;;;;;5114969;28;20449;-80
2024/02/28 04:43:12;;;;;;;9.57;5.33;;;6.70;99.90;;;;;;5114853;28;20450;-80
2024/02/28 04:45:38;;;;;;;11.27;5.00;;;6.70;99.90;;;;;;5114899;28;20443;-80
2024/02/28 04:48:06;;;;;;;7.37;4.13;;;6.70;99.90;;;;;;5114472;28;20450;-80
2024/02/28 04:50:33;;;;;;;11.67;3.77;;;6.70;99.90;;;;;;5114405;28;20936;-80
2024/02/28 04:53:00;;;;;;;7.73;4.10;;;6.70;99.90;;;;;;5114488;28;20471;-80
2024/02/28 04:55:26;;;;;;;5.97;3.63;;;6.60;99.90;;;;;;5114817;28;20462;-80
2024/02/28 04:57:54;;;;;;;10.20;3.93;;;6.60;99.90;;;;;;5114564;28;20446;-80
2024/02/28 05:00:21;;;;;;;9.97;3.83;;;6.60;99.90;;;;;;5114595;28;20471;-80
2024/02/28 05:02:48;;;;;;;8.33;3.33;;;6.60;99.90;;;;;;5114826;28;20822;-80
2024/02/28 05:05:15;;;;;;;11.30;4.50;;;6.60;99.90;;;;;;5114803;28;20497;-80
2024/02/28 05:07:42;;;;;;;13.60;4.40;;;6.60;99.90;;;;;;5114737;28;20958;-80
2024/02/28 05:10:09;;;;;;;9.40;4.40;;;6.60;99.90;;;;;;5114249;28;20482;-80
2024/02/28 05:12:35;;;;;;;8.70;3.27;;;6.60;99.90;;;;;;5114434;28;20482;-80
2024/02/28 05:15:06;;;;;;;7.40;3.97;;;6.50;99.90;;;;;;5114561;28;20443;-80
2024/02/28 05:17:33;;;;;;;12.10;5.70;;;6.50;99.90;;;;;;5114909;28;20522;-80
2024/02/28 05:19:58;;;;;;;8.57;2.97;;;6.50;99.90;;;;;;5114625;28;20462;-80
2024/02/28 05:22:25;;;;;;;13.10;4.40;;;6.50;99.90;;;;;;5114423;28;20947;-80
2024/02/28 05:24:52;;;;;;;9.30;5.63;;;6.60;99.90;;;;;;5114605;28;20212;-80
2024/02/28 05:27:19;;;;;;;9.70;4.00;;;6.50;99.90;;;;;;5114662;28;20447;-80
2024/02/28 05:29:46;;;;;;;6.93;2.50;;;6.50;99.90;;;;;;5114076;28;20861;-80
2024/02/28 05:32:14;;;;;;;6.90;4.20;;;6.60;99.90;;;;;;5115305;28;20439;-80
2024/02/28 05:34:41;;;;;;;10.20;5.23;;;6.60;99.90;;;;;;5118646;28;20450;-80
2024/02/28 05:37:07;;;;;;;8.37;4.70;;;6.60;99.90;;;;;;5118600;28;20492;-80
2024/02/28 05:39:34;;;;;;;14.00;5.23;;;6.50;99.90;;;;;;5118929;28;20458;-80
2024/02/28 05:42:01;;;;;;;4.03;2.73;;;6.50;99.90;;;;;;5118335;28;20811;-80
2024/02/28 05:44:27;;;;;;;7.40;3.97;;;6.50;99.90;;;;;;5118621;28;20443;-80
2024/02/28 05:46:54;;;;;;;6.13;3.97;;;6.50;99.90;;;;;;5118061;28;20439;-80
2024/02/28 05:49:23;;;;;;;7.00;3.30;;;6.50;99.90;;;;;;5118290;28;20480;-80
2024/02/28 05:51:49;;;;;;;10.83;4.10;;;6.40;99.90;;;;;;5117660;28;20443;-80
2024/02/28 05:54:16;;;;;;;7.40;3.10;;;6.50;99.90;;;;;;5117937;28;20482;-81
2024/02/28 05:56:43;;;;;;;11.63;5.30;;;6.50;99.90;;;;;;5118591;28;20450;-80
2024/02/28 05:59:10;;;;;;;4.83;3.43;;;6.50;99.90;;;;;;5118081;28;20476;-80
2024/02/28 06:01:37;;;;;;;10.57;5.70;;;6.50;99.90;;;;;;5118158;27;20812;-80
2024/02/28 06:04:04;;;;;;;12.40;3.10;;;6.40;99.90;;;;;;5123850;28;20439;-80
2024/02/28 06:06:32;;;;;;;8.63;3.17;;;6.50;99.90;;;;;;5118023;27;20819;-80
2024/02/28 06:08:59;;;;;;;5.93;3.40;;;6.50;99.90;;;;;;5117792;28;20454;-80
2024/02/28 06:11:26;;;;;;;8.00;4.30;;;6.50;99.90;;;;;;5117545;28;20479;-80
2024/02/28 06:13:51;;;;;;;7.13;3.00;;;6.50;99.90;;;;;;5120375;28;20479;-80
2024/02/28 06:16:18;;;;;;;4.43;3.20;;;6.50;99.90;;;;;;5118501;27;20443;-80
2024/02/28 06:18:45;;;;;;;6.87;3.77;;;6.50;99.90;;;;;;5119380;28;20229;-81
2024/02/28 06:21:12;;;;;;;8.80;3.77;;;6.50;99.90;;;;;;5120105;28;20435;-80
2024/02/28 06:23:40;;;;;;;9.70;3.73;;;6.50;99.90;;;;;;5118872;27;20435;-80
2024/02/28 06:26:07;;;;;;;12.97;5.17;;;6.50;99.90;;;;;;5118312;28;20439;-80
2024/02/28 06:28:34;;;;;;;9.27;4.00;;;6.50;99.90;;;;;;5118314;28;20557;-80
2024/02/28 06:31:00;;;;;;;10.07;3.23;;;6.50;99.90;;;;;;5118462;28;20447;-80
2024/02/28 06:33:27;;;;;;;7.20;4.03;;;6.50;99.90;;;;;;5117691;28;20478;-80
2024/02/28 06:35:54;;;;;;;7.37;3.23;;;6.60;99.90;;;;;;5118027;28;20428;-81
2024/02/28 06:38:20;;;;;;;6.13;3.33;;;6.50;99.90;;;;;;5117735;28;20928;-81
2024/02/28 06:40:48;;;;;;;7.30;3.83;;;6.60;99.90;;;;;;5118082;28;20443;-80
2024/02/28 06:43:15;;;;;;;10.20;3.80;;;6.50;99.90;;;;;;5118033;27;20975;-80
2024/02/28 06:45:42;;;;;;;12.60;3.87;;;6.60;99.90;;;;;;5119722;28;20477;-80
2024/02/28 06:48:09;;;;;;;5.90;2.87;;;6.60;99.90;;;;;;5119413;28;20432;-80
2024/02/28 06:50:36;;;;;;;8.23;3.50;;;6.60;99.90;;;;;;5118980;28;20819;-80
2024/02/28 06:53:03;;;;;;;5.23;3.27;;;6.60;99.90;;;;;;5118259;28;20478;-80
2024/02/28 06:55:30;;;;;;;9.63;4.40;;;6.60;99.90;;;;;;5118729;28;20479;-80
2024/02/28 06:57:58;;;;;;;5.67;2.37;;;6.60;99.90;;;;;;5118599;28;20809;-81
2024/02/28 07:00:25;;;;;;;9.53;4.70;;;6.60;99.90;;;;;;5117872;28;20466;-80
2024/02/28 07:02:53;;;;;;;9.00;4.50;;;6.60;99.90;;;;;;5117635;27;20443;-80
2024/02/28 07:05:20;;;;;;;8.83;4.87;;;6.60;99.90;;;;;;5117607;28;20453;-80
2024/02/28 07:07:46;;;;;;;14.00;4.00;;;6.60;99.90;;;;;;5117459;28;20435;-80
2024/02/28 07:10:13;;;;;;;7.57;3.20;;;6.60;99.90;;;;;;5117234;28;20475;-80
2024/02/28 07:12:40;;;;;;;12.97;3.50;;;6.60;99.90;;;;;;5117225;28;20448;-80
2024/02/28 07:15:09;;;;;;;12.70;2.93;;;6.60;99.90;;;;;;5117240;28;20450;-80
2024/02/28 07:17:35;;;;;;;8.80;3.80;;;6.50;99.90;;;;;;5117112;28;20439;-80
2024/02/28 07:20:01;;;;;;;5.40;2.70;;;6.50;99.90;;;;;;5117249;28;20490;-80
2024/02/28 07:22:28;;;;;;;5.73;2.70;;;6.50;99.90;;;;;;5117092;28;20795;-80
2024/02/28 07:24:55;;;;;;;5.60;3.27;;;6.50;99.90;;;;;;5116977;28;20193;-80
2024/02/28 07:27:23;;;;;;;5.80;3.57;;;6.50;99.90;;;;;;5116985;28;20435;-81
2024/02/28 07:29:50;;;;;;;5.30;3.00;;;6.50;99.90;;;;;;5117316;28;20827;-80
2024/02/28 07:32:18;;;;;;;8.87;2.60;;;6.50;99.90;;;;;;5116805;28;20439;-80
2024/02/28 07:34:45;;;;;;;4.40;2.67;;;6.50;99.90;;;;;;5118393;28;20478;-80
2024/02/28 07:37:12;;;;;;;7.90;3.40;;;6.60;99.90;;;;;;5117572;28;20450;-80
2024/02/28 07:39:39;;;;;;;2.83;2.53;;;6.60;99.90;;;;;;5116756;28;20463;-80
2024/02/28 07:42:06;;;;;;;4.13;2.77;;;6.60;99.90;;;;;;5116875;28;20443;-80
2024/02/28 07:44:33;;;;;;;5.07;3.37;;;6.60;99.90;;;;;;5117041;28;20431;-80
2024/02/28 07:46:59;;;;;;;4.83;2.40;;;6.60;99.90;;;;;;5116625;28;20935;-80
2024/02/28 07:49:27;;;;;;;8.60;3.07;;;6.70;99.90;;;;;;5116728;28;20451;-80
2024/02/28 07:51:55;;;;;;;3.30;1.43;;;6.70;99.90;;;;;;5116722;28;20447;-80
2024/02/28 07:54:21;;;;;;;4.33;2.73;;;6.80;99.90;;;;;;5115944;28;20477;-80
2024/02/28 07:56:49;;;;;;;4.37;3.70;;;6.80;99.90;;;;;;5115996;28;20432;-80
2024/02/28 07:59:16;;;;;;;7.57;3.37;;;6.80;99.90;;;;;;5116167;28;20849;-80
2024/02/28 08:01:43;;;;;;;5.47;3.30;;;6.90;99.90;;;;;;5116258;28;20450;-80
2024/02/28 08:04:09;;;;;;;4.50;1.90;;;6.90;99.90;;;;;;5116021;28;20443;-80
2024/02/28 08:06:37;;;;;;;6.43;2.80;;;6.90;99.90;;;;;;5116321;28;20447;-80
2024/02/28 08:09:05;;;;;;;3.27;2.60;;;6.90;99.90;;;;;;5116141;28;20471;-80
2024/02/28 08:11:31;;;;;;;5.30;2.40;;;7.00;99.90;;;;;;5115821;28;20471;-80
2024/02/28 08:13:58;;;;;;;7.50;3.37;;;7.00;99.90;;;;;;5115930;28;20478;-80
2024/02/28 08:16:25;;;;;;;7.73;2.97;;;7.00;99.90;;;;;;5115663;28;20434;-80
2024/02/28 08:18:52;;;;;;;7.40;2.33;;;6.90;99.90;;;;;;5120745;28;20462;-80
2024/02/28 08:21:19;;;;;;;1.63;1.50;;;6.90;99.90;;;;;;5116946;28;20443;-81
2024/02/28 08:23:47;;;;;;;4.50;2.50;;;7.00;99.90;;;;;;5117144;28;20458;-81
2024/02/28 08:26:15;;;;;;;4.00;3.13;;;6.90;99.90;;;;;;5116518;28;20451;-81
2024/02/28 08:28:41;;;;;;;5.30;2.40;;;7.00;99.90;;;;;;5116283;28;20471;-81
2024/02/28 08:31:08;;;;;;;6.07;3.07;;;6.90;99.90;;;;;;5116483;28;20462;-80
2024/02/28 08:33:35;;;;;;;8.97;3.43;;;6.90;99.90;;;;;;5116326;28;20482;-81
2024/02/28 08:36:01;;;;;;;10.03;3.40;;;6.90;99.90;;;;;;5116772;28;20450;-80
2024/02/28 08:38:28;;;;;;;4.77;2.63;;;6.90;99.90;;;;;;5115855;28;20466;-80
2024/02/28 08:40:56;;;;;;;3.63;2.70;;;6.80;99.90;;;;;;5115812;27;20454;-80
2024/02/28 08:43:23;;;;;;;4.70;1.80;;;6.80;99.90;;;;;;5115990;28;20435;-80
2024/02/28 08:45:51;;;;;;;5.20;2.13;;;6.80;99.90;;;;;;5127465;28;20422;-80
2024/02/28 08:48:18;;;;;;;4.47;2.00;;;6.80;99.90;;;;;;5116000;28;20477;-81
2024/02/28 08:50:45;;;;;;;4.43;2.20;;;6.70;99.90;;;;;;5116127;28;20454;-81
2024/02/28 08:53:11;;;;;;;4.50;2.87;;;6.70;99.90;;;;;;5115641;28;20443;-81
2024/02/28 08:55:38;;;;;;;4.20;2.00;;;6.80;99.90;;;;;;5117246;28;20441;-81
2024/02/28 08:58:06;;;;;;;4.60;2.70;;;6.90;99.90;;;;;;5116980;28;20427;-81
2024/02/28 09:00:33;;;;;;;4.60;1.93;;;6.70;99.90;;;;;;5116835;28;20435;-81
2024/02/28 09:03:01;;;;;;;4.67;1.83;;;6.80;99.90;;;;;;5116449;28;20453;-81
2024/02/28 09:05:28;;;;;;;5.10;2.70;;;6.90;99.90;;;;;;5116520;28;20812;-81
2024/02/28 09:07:55;;;;;;;6.03;2.77;;;7.00;99.90;;;;;;5117259;28;20442;-81
2024/02/28 09:10:24;;;;;;;5.40;2.43;;;6.90;99.90;;;;;;5116126;28;20582;-81
2024/02/28 09:12:50;;;;;;;2.40;1.80;;;6.90;99.90;;;;;;5116996;28;20443;-81
2024/02/28 09:15:18;;;;;;;3.03;2.20;;;7.00;99.90;;;;;;5116536;28;20490;-81
2024/02/28 09:17:45;;;;;;;5.30;2.50;;;7.00;99.90;;;;;;5116379;28;20443;-81
2024/02/28 09:20:13;;;;;;;6.20;4.00;;;7.10;99.90;;;;;;5115922;28;20453;-81
2024/02/28 09:22:39;;;;;;;7.27;3.20;;;7.10;99.90;;;;;;5117194;28;20454;-81
2024/02/28 09:25:08;;;;;;;5.17;2.83;;;7.20;99.90;;;;;;5116354;28;20447;-81
2024/02/28 09:27:35;;;;;;;6.83;2.83;;;7.20;99.90;;;;;;5116904;28;20534;-80
2024/02/28 09:30:02;;;;;;;4.60;2.43;;;7.20;99.90;;;;;;5116972;28;20471;-78
2024/02/28 09:32:30;;;;;;;6.73;3.37;;;7.30;99.90;;;;;;5115268;28;20439;-77
2024/02/28 09:34:57;;;;;;;8.97;3.67;;;7.30;99.90;;;;;;5114949;28;21002;-77
2024/02/28 09:37:24;;;;;;;1.70;1.60;;;7.30;99.90;;;;;;5115437;28;20446;-77
2024/02/28 09:39:52;;;;;;;4.87;3.00;;;7.40;99.90;;;;;;5115009;28;20462;-78
2024/02/28 09:42:19;;;;;;;6.03;2.50;;;7.50;99.90;;;;;;5115205;28;20459;-77
2024/02/28 09:44:46;;;;;;;5.03;3.47;;;7.50;99.90;;;;;;5115371;28;20462;-77
2024/02/28 09:47:14;;;;;;;4.20;2.63;;;7.50;99.90;;;;;;5115340;28;20442;-77
2024/02/28 09:49:43;;;;;;;3.80;2.53;;;7.60;99.90;;;;;;5115113;28;20810;-77
2024/02/28 09:52:10;;;;;;;8.13;2.43;;;7.60;99.90;;;;;;5115079;28;20419;-77
2024/02/28 09:54:36;;;;;;;3.13;1.87;;;7.60;99.90;;;;;;5114346;28;20479;-77
2024/02/28 09:57:05;;;;;;;6.87;3.70;;;7.70;99.90;;;;;;5114384;28;20441;-80
2024/02/28 09:59:33;;;;;;;8.00;2.37;;;7.80;99.90;;;;;;5114220;28;20458;-77
2024/02/28 10:02:03;;;;;;;4.10;2.37;;;7.90;99.90;;;;;;5114942;28;20943;-78
2024/02/28 10:04:30;;;;;;;4.37;2.27;;;7.90;99.90;;;;;;5114614;28;20440;-77
2024/02/28 10:06:58;;;;;;;4.83;3.10;;;7.90;99.90;;;;;;5114431;28;20426;-77
2024/02/28 10:09:26;;;;;;;7.87;2.10;;;7.90;99.90;;;;;;5114394;28;20469;-77
2024/02/28 10:11:53;;;;;;;4.93;3.73;;;7.90;99.90;;;;;;5114156;28;20475;-77
2024/02/28 10:14:20;;;;;;;7.37;2.83;;;8.00;99.90;;;;;;5114616;28;20478;-77
2024/02/28 10:16:47;;;;;;;4.03;2.53;;;8.20;99.90;;;;;;5114209;28;20450;-77
2024/02/28 10:19:13;;;;;;;8.03;3.03;;;8.30;99.90;;;;;;5116777;28;20463;-77
2024/02/28 10:21:40;;;;;;;7.13;3.30;;;8.30;99.90;;;;;;5117893;28;20450;-77
2024/02/28 10:24:08;;;;;;;2.40;2.00;;;8.20;99.90;;;;;;5117823;28;20450;-77
2024/02/28 10:26:43;;;;;;;4.50;2.03;;;8.10;99.90;;;;;;5117952;28;20424;-77
2024/02/28 10:29:10;;;;;;;5.87;2.93;;;8.20;99.90;;;;;;5117872;27;20457;-77
2024/02/28 10:31:37;;;;;;;9.70;3.30;;;8.30;99.90;;;;;;5117850;27;20854;-77
2024/02/28 10:34:05;;;;;;;4.20;2.97;;;8.40;99.90;;;;;;5117473;27;20493;-77
2024/02/28 10:36:33;;;;;;;7.80;3.80;;;8.40;99.90;;;;;;5117407;28;20427;-77
2024/02/28 10:39:01;;;;;;;5.13;2.57;;;8.40;99.90;;;;;;5117076;28;20477;-77
2024/02/28 10:41:30;;;;;;;3.20;2.70;;;8.50;99.90;;;;;;5116940;28;20487;-77
2024/02/28 10:43:57;;;;;;;9.20;2.73;;;8.40;99.90;;;;;;5117043;28;20499;-77
2024/02/28 10:46:24;;;;;;;7.33;2.40;;;8.50;99.90;;;;;;5117275;28;20442;-77
2024/02/28 10:48:54;;;;;;;5.27;2.33;;;8.40;99.90;;;;;;5116911;28;20463;-77
2024/02/28 10:51:25;;;;;;;2.50;2.03;;;8.40;99.90;;;;;;5117167;28;20915;-78
2024/02/28 10:54:00;;;;;;;2.53;1.63;;;8.20;99.90;;;;;;5118236;28;20489;-78
2024/02/28 10:56:31;;;;;;;5.70;2.93;;;8.20;99.90;;;;;;5117812;28;20451;-78
2024/02/28 10:59:00;;;;;;;10.10;4.20;;;8.30;99.90;;;;;;5117243;28;20971;-78
2024/02/28 11:01:27;;;;;;;6.73;3.00;;;8.30;99.90;;;;;;5117829;28;20533;-78
2024/02/28 11:03:54;;;;;;;2.97;1.70;;;8.50;99.90;;;;;;5118118;28;20440;-78
2024/02/28 11:06:22;;;;;;;4.30;3.30;;;8.60;99.90;;;;;;5118355;28;20442;-78
2024/02/28 11:08:52;;;;;;;6.10;3.00;;;8.70;99.90;;;;;;5118618;27;20467;-78
2024/02/28 11:11:21;;;;;;;6.60;3.17;;;8.80;99.90;;;;;;5117870;28;20478;-78
2024/02/28 11:14:00;;;;;;;6.57;2.93;;;8.70;99.90;;;;;;5118907;28;20447;-78
2024/02/28 11:16:28;;;;;;;9.67;4.17;;;8.80;99.90;;;;;;5118436;28;20423;-78
2024/02/28 11:18:55;;;;;;;6.27;2.97;;;8.80;99.90;;;;;;5118367;28;20461;-78
2024/02/28 11:21:25;;;;;;;3.50;2.63;;;8.80;99.90;;;;;;5118361;28;20431;-78
2024/02/28 11:23:52;;;;;;;4.90;3.00;;;8.90;99.90;;;;;;5118400;28;20447;-78
2024/02/28 11:26:20;;;;;;;7.07;3.37;;;9.00;99.90;;;;;;5118654;28;20431;-78
2024/02/28 11:28:47;;;;;;;6.80;3.43;;;9.00;99.90;;;;;;5118174;28;20520;-78
2024/02/28 11:31:15;;;;;;;4.97;2.80;;;9.00;99.90;;;;;;5118554;28;20465;-78
2024/02/28 11:33:42;;;;;;;6.37;3.10;;;9.00;99.90;;;;;;5117447;27;20472;-78
2024/02/28 11:36:09;;;;;;;5.10;3.20;;;9.00;99.90;;;;;;5117364;28;20482;-78
2024/02/28 11:38:37;;;;;;;5.70;3.10;;;9.00;99.90;;;;;;5121103;28;20469;-78
2024/02/28 11:41:04;;;;;;;7.23;3.13;;;9.00;99.90;;;;;;5128798;28;20449;-78
2024/02/28 11:43:32;;;;;;;15.20;4.40;;;9.00;99.90;;;;;;5130773;28;20524;-78
2024/02/28 11:45:59;;;;;;;6.63;3.27;;;9.00;99.90;;;;;;5130150;28;20443;-78
2024/02/28 11:48:28;;;;;;;15.47;3.90;;;9.00;99.90;;;;;;5126357;28;20449;-78
2024/02/28 11:50:55;;;;;;;5.03;2.60;;;9.00;99.90;;;;;;5129565;28;20468;-78
2024/02/28 11:53:21;;;;;;;7.73;3.43;;;9.00;99.90;;;;;;5127984;28;20443;-78
2024/02/28 11:55:49;;;;;;;8.17;4.40;;;9.00;99.90;;;;;;5127669;28;21011;-78
2024/02/28 11:58:16;;;;;;;6.70;3.20;;;9.00;99.90;;;;;;5119588;28;20439;-78
2024/02/28 12:00:49;;;;;;;6.17;4.13;;;9.10;99.90;;;;;;5117436;28;20815;-78
2024/02/28 12:03:21;;;;;;;10.53;4.07;;;9.10;99.90;;;;;;5117212;27;20435;-78
2024/02/28 12:05:49;;;;;;;5.80;3.00;;;9.00;99.90;;;;;;5117311;28;20426;-78
2024/02/28 12:08:17;;;;;;;3.97;2.30;;;9.00;99.90;;;;;;5116209;28;20443;-78
2024/02/28 12:10:44;;;;;;;8.30;3.67;;;9.00;99.90;;;;;;5116241;28;20501;-78
2024/02/28 12:13:12;;;;;;;10.23;4.17;;;8.90;99.90;;;;;;5116642;28;20462;-78
2024/02/28 12:15:41;;;;;;;3.90;2.60;;;8.90;99.90;;;;;;5116319;28;20991;-78
2024/02/28 12:18:09;;;;;;;6.83;2.77;;;8.90;99.90;;;;;;5116619;28;20443;-78
2024/02/28 12:20:37;;;;;;;6.00;3.03;;;8.90;99.90;;;;;;5116850;27;20435;-78
2024/02/28 12:23:05;;;;;;;8.43;3.90;;;9.00;99.90;;;;;;5116333;28;20475;-78
2024/02/28 12:25:32;;;;;;;9.30;4.70;;;9.00;99.90;;;;;;5116383;28;20450;-78
2024/02/28 12:27:58;;;;;;;6.83;3.57;;;9.10;99.90;;;;;;5116179;28;20446;-78
2024/02/28 12:30:26;;;;;;;3.97;2.50;;;9.10;99.90;;;;;;5116065;28;20463;-78
2024/02/28 12:32:52;;;;;;;4.80;2.90;;;9.00;99.90;;;;;;5116369;28;20466;-78
2024/02/28 12:35:20;;;;;;;11.90;4.17;;;9.10;99.90;;;;;;5115992;28;20475;-78
2024/02/28 12:37:48;;;;;;;7.67;3.87;;;9.20;99.90;;;;;;5116617;28;20439;-78
2024/02/28 12:40:17;;;;;;;8.57;6.27;;;9.20;99.90;;;;;;5117023;28;20463;-78
2024/02/28 12:42:44;;;;;;;8.90;4.57;;;9.10;99.90;;;;;;5116562;28;20431;-78
2024/02/28 12:45:11;;;;;;;6.83;3.87;;;9.20;99.90;;;;;;5116108;28;20439;-78
2024/02/28 12:47:38;;;;;;;6.83;3.90;;;9.20;99.90;;;;;;5115304;28;20439;-78
2024/02/28 12:50:07;;;;;;;8.40;3.77;;;9.10;99.90;;;;;;5114939;28;20536;-78
2024/02/28 12:52:33;;;;;;;8.37;3.73;;;9.20;99.90;;;;;;5115056;28;20459;-77
2024/02/28 12:55:00;;;;;;;9.93;6.20;;;9.30;99.90;;;;;;5115054;28;20845;-77